KDBN/DBN METAR and TAF weather

Enter ICAO airport designator
Station Type Date Time Source
KDBN METAR 2021/10/24 22:55 UTC NOAA

KDBN 242255Z AUTO 00000KT 10SM CLR 19/16 A3008 RMK AO2


Station Type Date Time Source
KDBN Decoded METAR 2021/10/24 22:55 UTC NOAA

Dublin, W H 'Bud' Barron Airport, GA, United States (KDBN) 32-33-52N 082-59-06W
Oct 24, 2021 - 06:55 PM EDT / 2021.10.24 2255 UTC
Wind: Calm:0
Visibility: 10 mile(s):0
Sky conditions: clear
Temperature: 66 F (19 C)
Dew Point: 60 F (16 C)
Relative Humidity: 82%
Pressure (altimeter): 30.08 in. Hg (1018 hPa)
ob: KDBN 242255Z AUTO 00000KT 10SM CLR 19/16 A3008 RMK AO2
cycle: 23

Station Type Date Time Source
KDBN TAF UTC NOAA

Error!

Example: see airport list